createdAt,value
2022-11-03T00:00:59.873Z,4.87
2022-11-03T00:05:21.246Z,4.93
2022-11-03T00:09:23.953Z,4.86
2022-11-03T00:13:25.372Z,4.85
2022-11-03T00:17:26.784Z,4.89
2022-11-03T00:21:29.023Z,4.76
2022-11-03T00:25:30.378Z,4.89
2022-11-03T00:29:31.771Z,5.01
2022-11-03T00:33:33.616Z,4.98
2022-11-03T00:37:35.009Z,4.78
2022-11-03T00:41:37.525Z,4.85
2022-11-03T00:45:38.878Z,4.76
2022-11-03T00:49:40.263Z,4.68
2022-11-03T00:53:50.855Z,4.84
2022-11-03T00:57:53.333Z,4.98
2022-11-03T01:01:54.792Z,4.88
2022-11-03T01:06:14.997Z,5.01
2022-11-03T01:10:16.510Z,5.03
2022-11-03T01:14:17.997Z,5.11
2022-11-03T01:18:19.438Z,5.18
2022-11-03T01:22:22.631Z,5.13
2022-11-03T01:26:24.017Z,5.11
2022-11-03T01:30:25.475Z,5.05
2022-11-03T01:34:27.046Z,4.98
2022-11-03T01:38:33.024Z,4.98
2022-11-03T01:42:34.453Z,4.97
2022-11-03T01:47:04.988Z,5.01
2022-11-03T01:51:08.124Z,4.90
2022-11-03T01:55:15.873Z,4.57
2022-11-03T01:59:20.747Z,4.74
2022-11-03T02:03:23.833Z,4.55
2022-11-03T02:07:49.467Z,4.63
2022-11-03T02:12:08.995Z,4.60
2022-11-03T02:16:10.446Z,4.61
2022-11-03T02:20:22.329Z,4.62
2022-11-03T02:24:35.622Z,4.47
2022-11-03T02:28:37.360Z,4.42
2022-11-03T02:32:48.328Z,4.32
2022-11-03T02:37:03.677Z,4.21
2022-11-03T02:41:08.483Z,4.27
2022-11-03T02:45:17.334Z,4.31
2022-11-03T02:49:19.119Z,4.14
2022-11-03T02:53:20.492Z,4.01
2022-11-03T02:57:27.927Z,4.13
2022-11-03T03:01:46.855Z,3.90
2022-11-03T03:05:52.742Z,3.97
2022-11-03T03:09:59.877Z,3.97
2022-11-03T03:14:01.345Z,4.05
2022-11-03T03:18:19.972Z,4.02
2022-11-03T03:22:28.984Z,3.98
2022-11-03T03:26:35.481Z,3.97
2022-11-03T03:30:38.807Z,4.00
2022-11-03T03:34:43.360Z,4.11
2022-11-03T03:38:49.887Z,4.00
2022-11-03T03:42:51.994Z,4.00
2022-11-03T03:47:09.650Z,3.72
2022-11-03T03:51:13.124Z,3.75
2022-11-03T03:55:17.672Z,3.93
2022-11-03T03:59:19.114Z,4.01
2022-11-03T04:03:23.438Z,4.02
2022-11-03T04:07:43.973Z,4.12
2022-11-03T04:12:04.092Z,4.04
2022-11-03T04:16:24.209Z,3.65
2022-11-03T04:20:44.691Z,3.84
2022-11-03T04:24:48.202Z,3.82
2022-11-03T04:28:52.166Z,4.01
2022-11-03T04:32:54.464Z,3.67
2022-11-03T04:36:56.238Z,3.85
2022-11-03T04:40:58.888Z,3.95
2022-11-03T04:45:02.267Z,4.01
2022-11-03T04:49:05.807Z,4.01
2022-11-03T04:53:14.486Z,4.10
2022-11-03T04:57:17.312Z,4.12
2022-11-03T05:01:24.347Z,4.19
2022-11-03T05:05:26.798Z,3.97
2022-11-03T05:09:30.167Z,3.98
2022-11-03T05:13:31.562Z,4.18
2022-11-03T05:17:32.976Z,4.25
2022-11-03T05:21:34.508Z,4.22
2022-11-03T05:25:42.225Z,4.04
2022-11-03T05:29:44.458Z,4.02
2022-11-03T05:33:47.323Z,4.05
2022-11-03T05:37:50.079Z,4.01
2022-11-03T05:41:51.508Z,4.07
2022-11-03T05:45:58.813Z,4.17
2022-11-03T05:50:21.736Z,4.13
2022-11-03T05:54:31.286Z,4.16
2022-11-03T05:58:38.311Z,4.09
2022-11-03T06:02:41.752Z,4.12
2022-11-03T06:06:43.863Z,4.11
2022-11-03T06:10:57.173Z,4.08
2022-11-03T06:14:58.654Z,4.02
2022-11-03T06:19:03.588Z,4.06
2022-11-03T06:23:12.163Z,4.00
2022-11-03T06:27:21.772Z,3.81
2022-11-03T06:31:32.592Z,3.93
2022-11-03T06:35:34.939Z,3.89
2022-11-03T06:39:36.439Z,3.81
2022-11-03T06:43:42.876Z,3.80
2022-11-03T06:47:44.261Z,3.82
2022-11-03T06:51:45.609Z,3.98
2022-11-03T06:55:48.363Z,3.93
2022-11-03T07:00:06.705Z,3.85
2022-11-03T07:04:16.263Z,4.01
2022-11-03T07:08:21.055Z,3.88
2022-11-03T07:12:22.475Z,3.95
2022-11-03T07:16:41.172Z,4.06
2022-11-03T07:20:42.580Z,4.25
2022-11-03T07:24:46.745Z,4.43
2022-11-03T07:28:48.483Z,4.63
2022-11-03T07:32:53.761Z,4.75
2022-11-03T07:36:57.961Z,5.00
2022-11-03T07:41:00.225Z,5.17
2022-11-03T07:45:01.658Z,5.09
2022-11-03T07:49:03.311Z,5.43
2022-11-03T07:53:13.915Z,5.80
2022-11-03T07:57:19.025Z,6.02
2022-11-03T08:01:36.378Z,6.08
2022-11-03T08:05:37.852Z,6.09
2022-11-03T08:09:39.256Z,6.32
2022-11-03T08:13:40.654Z,6.28
2022-11-03T08:17:42.050Z,6.55
2022-11-03T08:21:44.503Z,6.67
2022-11-03T08:25:46.071Z,6.85
2022-11-03T08:29:47.521Z,7.30
2022-11-03T08:33:48.901Z,7.35
2022-11-03T08:37:50.320Z,7.70
2022-11-03T08:41:51.736Z,8.08
2022-11-03T08:45:53.875Z,8.34
2022-11-03T08:49:55.290Z,8.22
2022-11-03T08:53:56.789Z,8.46
2022-11-03T08:57:58.182Z,8.60
2022-11-03T09:01:59.697Z,8.72
2022-11-03T09:06:01.128Z,8.96
2022-11-03T09:14:19.485Z,8.79
2022-11-03T09:18:21.020Z,9.25
2022-11-03T09:22:22.592Z,9.29
2022-11-03T09:26:23.942Z,9.35
2022-11-03T09:30:25.398Z,9.54
2022-11-03T09:34:26.853Z,10.02
2022-11-03T09:38:28.264Z,10.01
2022-11-03T09:42:31.670Z,10.51
2022-11-03T09:46:35.132Z,10.94
2022-11-03T09:50:36.705Z,11.05
2022-11-03T09:54:38.122Z,11.09
2022-11-03T09:58:40.983Z,10.89
2022-11-03T10:02:43.313Z,10.20
2022-11-03T10:06:44.826Z,11.20
2022-11-03T10:10:46.339Z,11.42
2022-11-03T10:14:48.136Z,11.67
2022-11-03T10:18:50.208Z,11.87
2022-11-03T10:22:54.475Z,11.49
2022-11-03T10:26:56.002Z,11.55
2022-11-03T10:31:15.740Z,11.77
2022-11-03T10:35:34.344Z,11.60
2022-11-03T10:39:35.914Z,11.65
2022-11-03T10:43:39.487Z,11.44
2022-11-03T10:47:40.983Z,11.20
2022-11-03T10:51:44.555Z,11.45
2022-11-03T10:55:46.196Z,11.54
2022-11-03T10:59:49.854Z,11.32
2022-11-03T11:03:51.417Z,11.48
2022-11-03T11:07:54.321Z,11.25
2022-11-03T11:12:06.255Z,11.16
2022-11-03T11:16:46.025Z,11.17
2022-11-03T11:20:48.160Z,11.17
2022-11-03T11:24:49.506Z,11.32
2022-11-03T11:29:09.505Z,11.23
2022-11-03T11:33:23.086Z,11.24
2022-11-03T11:37:24.429Z,11.25
2022-11-03T11:42:03.224Z,11.24
2022-11-03T11:46:23.216Z,11.25
2022-11-03T11:50:29.168Z,11.31
2022-11-03T11:54:30.620Z,11.35
2022-11-03T11:58:35.495Z,11.38
2022-11-03T12:02:36.926Z,11.32
2022-11-03T12:06:40.362Z,11.40
2022-11-03T12:10:52.550Z,11.27
2022-11-03T12:14:53.951Z,11.22
2022-11-03T12:18:55.612Z,11.26
2022-11-03T12:22:57.026Z,11.19
2022-11-03T12:27:03.119Z,11.40
2022-11-03T12:31:04.640Z,11.57
2022-11-03T12:35:08.434Z,11.54
2022-11-03T12:39:13.125Z,11.47
2022-11-03T12:43:14.644Z,11.57
2022-11-03T12:47:16.129Z,11.48
2022-11-03T12:51:19.695Z,11.26
2022-11-03T12:55:21.281Z,11.39
2022-11-03T12:59:22.732Z,11.35
2022-11-03T13:03:24.160Z,11.60
2022-11-03T13:07:30.363Z,11.85
2022-11-03T13:11:53.232Z,11.86
2022-11-03T13:15:54.894Z,12.00
2022-11-03T13:19:56.462Z,12.12
2022-11-03T13:23:57.915Z,12.35
2022-11-03T13:27:59.638Z,12.39
2022-11-03T13:32:01.053Z,12.59
2022-11-03T13:36:02.661Z,12.67
2022-11-03T13:40:04.685Z,12.97
2022-11-03T13:44:06.323Z,12.68
2022-11-03T13:49:05.261Z,12.64
2022-11-03T13:52:29.155Z,12.73
2022-11-03T13:56:30.651Z,12.60
2022-11-03T14:00:34.398Z,12.53
2022-11-03T14:04:43.820Z,12.72
2022-11-03T14:08:45.767Z,12.60
2022-11-03T14:12:47.207Z,13.03
2022-11-03T14:16:48.678Z,13.06
2022-11-03T14:20:50.118Z,13.09
2022-11-03T14:24:51.991Z,12.51
2022-11-03T14:28:53.383Z,12.39
2022-11-03T14:32:59.445Z,12.31
2022-11-03T14:37:01.354Z,12.06
2022-11-03T14:41:21.396Z,11.98
2022-11-03T14:45:23.012Z,11.55
2022-11-03T14:49:24.587Z,11.63
2022-11-03T14:53:26.631Z,11.44
2022-11-03T14:57:28.017Z,11.39
2022-11-03T15:01:29.606Z,11.25
2022-11-03T15:05:46.280Z,11.22
2022-11-03T15:09:47.798Z,11.25
2022-11-03T15:13:52.296Z,11.02
2022-11-03T15:18:02.465Z,10.84
2022-11-03T15:22:04.359Z,10.81
2022-11-03T15:26:06.109Z,10.80
2022-11-03T15:30:08.233Z,10.37
2022-11-03T15:34:09.837Z,10.26
2022-11-03T15:38:11.249Z,10.22
2022-11-03T15:42:12.660Z,10.05
2022-11-03T15:46:18.140Z,9.92
2022-11-03T15:50:20.420Z,9.99
2022-11-03T15:54:21.795Z,9.99
2022-11-03T15:58:23.233Z,9.98
2022-11-03T16:02:40.896Z,10.01
2022-11-03T16:11:04.905Z,10.05
2022-11-03T16:15:06.992Z,9.95
2022-11-03T16:19:09.556Z,9.91
2022-11-03T16:23:10.946Z,9.96
2022-11-03T16:27:12.425Z,9.94
2022-11-03T16:31:13.768Z,9.98
2022-11-03T16:35:15.179Z,9.89
2022-11-03T16:39:16.565Z,9.99
2022-11-03T16:43:17.958Z,9.93
2022-11-03T16:47:19.293Z,9.83
2022-11-03T16:51:20.711Z,9.68
2022-11-03T16:55:22.267Z,9.59
2022-11-03T16:59:25.546Z,9.65
2022-11-03T17:03:27.046Z,9.55
2022-11-03T17:07:28.412Z,9.54
2022-11-03T17:11:36.291Z,9.59
2022-11-03T17:15:37.906Z,9.55
2022-11-03T17:19:39.469Z,9.55
2022-11-03T17:23:40.859Z,9.52
2022-11-03T17:27:52.329Z,9.55
2022-11-03T17:31:54.250Z,9.55
2022-11-03T17:35:55.791Z,9.55
2022-11-03T17:39:57.284Z,9.62
2022-11-03T17:43:58.817Z,9.68
2022-11-03T17:48:00.715Z,9.73
2022-11-03T17:52:02.224Z,9.64
2022-11-03T17:56:28.986Z,9.64
2022-11-03T18:00:26.219Z,9.68
2022-11-03T18:04:27.628Z,9.77
2022-11-03T18:08:29.061Z,9.70
2022-11-03T18:12:55.628Z,9.78
2022-11-03T18:16:57.882Z,9.80
2022-11-03T18:20:59.465Z,9.76
2022-11-03T18:25:00.848Z,9.66
2022-11-03T18:29:02.329Z,9.66
2022-11-03T18:33:03.907Z,9.68
2022-11-03T18:37:05.324Z,9.71
2022-11-03T18:41:33.501Z,9.54
2022-11-03T18:45:34.953Z,9.49
2022-11-03T18:49:37.164Z,9.45
2022-11-03T18:53:38.600Z,9.48
2022-11-03T18:57:40.171Z,9.37
2022-11-03T19:01:41.823Z,9.25
2022-11-03T19:05:46.010Z,9.47
2022-11-03T19:09:47.403Z,9.41
2022-11-03T19:13:48.934Z,9.38
2022-11-03T19:17:54.649Z,9.30
2022-11-03T19:21:56.431Z,9.33
2022-11-03T19:25:59.672Z,9.42
2022-11-03T19:30:03.732Z,9.28
2022-11-03T19:34:08.174Z,9.26
2022-11-03T19:38:13.659Z,9.19
2022-11-03T19:42:36.642Z,9.24
2022-11-03T19:46:42.077Z,9.22
2022-11-03T19:50:43.695Z,9.19
2022-11-03T19:54:47.942Z,9.25
2022-11-03T19:58:49.310Z,9.21
2022-11-03T20:02:50.737Z,9.19
2022-11-03T20:06:52.283Z,9.21
2022-11-03T20:10:54.036Z,9.09
2022-11-03T20:14:55.450Z,9.17
2022-11-03T20:18:57.055Z,9.20
2022-11-03T20:23:00.056Z,9.08
2022-11-03T20:27:01.724Z,9.05
2022-11-03T20:31:03.995Z,8.99
2022-11-03T20:35:05.826Z,8.89
2022-11-03T20:39:13.197Z,8.83
2022-11-03T20:43:39.036Z,8.73
2022-11-03T20:47:44.452Z,8.74
2022-11-03T20:51:50.884Z,8.60
2022-11-03T20:55:53.729Z,8.50
2022-11-03T20:59:56.084Z,8.57
2022-11-03T21:04:00.427Z,8.53
2022-11-03T21:08:02.262Z,8.53
2022-11-03T21:12:11.648Z,8.37
2022-11-03T21:16:31.846Z,8.29
2022-11-03T21:20:33.616Z,8.31
2022-11-03T21:24:35.029Z,8.17
2022-11-03T21:28:36.437Z,8.52
2022-11-03T21:32:37.832Z,8.61
2022-11-03T21:36:39.206Z,8.40
2022-11-03T21:40:55.222Z,8.18
2022-11-03T21:44:58.618Z,8.13
2022-11-03T21:49:18.575Z,8.04
2022-11-03T21:53:19.978Z,8.05
2022-11-03T21:57:21.365Z,7.97
2022-11-03T22:01:22.911Z,7.98
2022-11-03T22:05:24.364Z,8.06
2022-11-03T22:09:27.380Z,7.99
2022-11-03T22:13:28.779Z,7.95
2022-11-03T22:17:30.197Z,7.92
2022-11-03T22:21:50.212Z,7.94
2022-11-03T22:26:09.952Z,7.92
2022-11-03T22:30:30.309Z,7.86
2022-11-03T22:34:50.108Z,7.82
2022-11-03T22:39:09.855Z,7.85
2022-11-03T22:43:29.524Z,7.69
2022-11-03T22:47:30.923Z,7.71
2022-11-03T22:51:32.313Z,7.78
2022-11-03T22:55:33.737Z,7.82
2022-11-03T22:59:35.102Z,7.80
2022-11-03T23:03:38.197Z,7.77
2022-11-03T23:07:41.457Z,7.78
2022-11-03T23:11:43.242Z,7.83
2022-11-03T23:15:44.630Z,7.69
2022-11-03T23:20:04.422Z,7.64
2022-11-03T23:24:24.699Z,7.75
2022-11-03T23:28:25.979Z,7.62
2022-11-03T23:32:27.339Z,7.47
2022-11-03T23:36:29.503Z,7.42
2022-11-03T23:40:33.063Z,7.51
2022-11-03T23:44:52.787Z,7.46
2022-11-03T23:48:54.648Z,7.36
2022-11-03T23:52:56.062Z,7.36
2022-11-03T23:57:15.879Z,7.31
